sensor_id;sensor_type;location;lat;lon;timestamp;P1;durP1;ratioP1;P2;durP2;ratioP2
15192;SDS011;7697;51.630;7.484;2023-01-10T00:00:06;7.43;;;4.90;;
15192;SDS011;7697;51.630;7.484;2023-01-10T00:05:09;8.55;;;4.82;;
15192;SDS011;7697;51.630;7.484;2023-01-10T00:10:11;10.63;;;5.38;;
15192;SDS011;7697;51.630;7.484;2023-01-10T00:15:13;11.15;;;5.13;;
15192;SDS011;7697;51.630;7.484;2023-01-10T00:20:16;11.93;;;5.53;;
15192;SDS011;7697;51.630;7.484;2023-01-10T00:25:18;11.93;;;6.13;;
15192;SDS011;7697;51.630;7.484;2023-01-10T00:30:20;8.33;;;5.20;;
15192;SDS011;7697;51.630;7.484;2023-01-10T00:35:23;8.65;;;5.35;;
15192;SDS011;7697;51.630;7.484;2023-01-10T00:40:25;12.98;;;6.18;;
15192;SDS011;7697;51.630;7.484;2023-01-10T00:45:27;9.50;;;5.30;;
15192;SDS011;7697;51.630;7.484;2023-01-10T00:50:31;10.00;;;5.72;;
15192;SDS011;7697;51.630;7.484;2023-01-10T00:55:32;6.63;;;4.75;;
15192;SDS011;7697;51.630;7.484;2023-01-10T01:00:36;9.93;;;5.40;;
15192;SDS011;7697;51.630;7.484;2023-01-10T01:05:40;12.15;;;5.82;;
15192;SDS011;7697;51.630;7.484;2023-01-10T01:10:42;8.40;;;5.40;;
15192;SDS011;7697;51.630;7.484;2023-01-10T01:15:44;12.57;;;6.13;;
15192;SDS011;7697;51.630;7.484;2023-01-10T01:20:51;10.40;;;5.63;;
15192;SDS011;7697;51.630;7.484;2023-01-10T01:25:53;10.93;;;5.78;;
15192;SDS011;7697;51.630;7.484;2023-01-10T01:30:57;8.70;;;5.70;;
15192;SDS011;7697;51.630;7.484;2023-01-10T01:36:00;7.28;;;5.10;;
15192;SDS011;7697;51.630;7.484;2023-01-10T01:41:02;15.30;;;6.05;;
15192;SDS011;7697;51.630;7.484;2023-01-10T01:46:24;16.52;;;6.43;;
15192;SDS011;7697;51.630;7.484;2023-01-10T01:51:27;12.68;;;6.43;;
15192;SDS011;7697;51.630;7.484;2023-01-10T01:56:32;11.80;;;5.37;;
15192;SDS011;7697;51.630;7.484;2023-01-10T02:01:37;8.00;;;5.13;;
15192;SDS011;7697;51.630;7.484;2023-01-10T02:06:43;10.52;;;5.18;;
15192;SDS011;7697;51.630;7.484;2023-01-10T02:11:46;9.07;;;4.70;;
15192;SDS011;7697;51.630;7.484;2023-01-10T02:16:48;12.27;;;4.87;;
15192;SDS011;7697;51.630;7.484;2023-01-10T02:22:07;11.75;;;4.82;;
15192;SDS011;7697;51.630;7.484;2023-01-10T02:27:30;11.18;;;4.60;;
15192;SDS011;7697;51.630;7.484;2023-01-10T02:32:49;9.15;;;4.22;;
15192;SDS011;7697;51.630;7.484;2023-01-10T02:37:59;9.07;;;4.83;;
15192;SDS011;7697;51.630;7.484;2023-01-10T02:43:07;7.47;;;3.63;;
15192;SDS011;7697;51.630;7.484;2023-01-10T02:48:14;9.90;;;3.90;;
15192;SDS011;7697;51.630;7.484;2023-01-10T02:53:17;8.97;;;3.87;;
15192;SDS011;7697;51.630;7.484;2023-01-10T02:58:24;9.73;;;4.10;;
15192;SDS011;7697;51.630;7.484;2023-01-10T03:03:39;7.97;;;3.20;;
15192;SDS011;7697;51.630;7.484;2023-01-10T03:08:48;7.43;;;3.63;;
15192;SDS011;7697;51.630;7.484;2023-01-10T03:13:55;7.53;;;3.47;;
15192;SDS011;7697;51.630;7.484;2023-01-10T03:19:02;7.33;;;3.60;;
15192;SDS011;7697;51.630;7.484;2023-01-10T03:24:09;8.77;;;3.70;;
15192;SDS011;7697;51.630;7.484;2023-01-10T03:29:15;8.87;;;3.70;;
15192;SDS011;7697;51.630;7.484;2023-01-10T03:34:23;8.73;;;3.20;;
15192;SDS011;7697;51.630;7.484;2023-01-10T03:39:29;7.90;;;3.53;;
15192;SDS011;7697;51.630;7.484;2023-01-10T03:44:37;9.13;;;3.13;;
15192;SDS011;7697;51.630;7.484;2023-01-10T03:49:47;11.50;;;3.90;;
15192;SDS011;7697;51.630;7.484;2023-01-10T03:54:53;7.63;;;2.87;;
15192;SDS011;7697;51.630;7.484;2023-01-10T03:59:58;6.20;;;2.88;;
15192;SDS011;7697;51.630;7.484;2023-01-10T04:05:01;9.63;;;4.07;;
15192;SDS011;7697;51.630;7.484;2023-01-10T04:10:03;13.17;;;4.37;;
15192;SDS011;7697;51.630;7.484;2023-01-10T04:15:06;10.93;;;4.15;;
15192;SDS011;7697;51.630;7.484;2023-01-10T04:20:10;13.37;;;4.30;;
15192;SDS011;7697;51.630;7.484;2023-01-10T04:25:12;9.47;;;4.23;;
15192;SDS011;7697;51.630;7.484;2023-01-10T04:30:14;8.43;;;3.73;;
15192;SDS011;7697;51.630;7.484;2023-01-10T04:35:17;12.43;;;4.27;;
15192;SDS011;7697;51.630;7.484;2023-01-10T04:40:19;10.23;;;4.13;;
15192;SDS011;7697;51.630;7.484;2023-01-10T04:45:22;9.83;;;4.50;;
15192;SDS011;7697;51.630;7.484;2023-01-10T04:50:25;7.90;;;3.70;;
15192;SDS011;7697;51.630;7.484;2023-01-10T04:55:27;9.87;;;3.77;;
15192;SDS011;7697;51.630;7.484;2023-01-10T05:00:29;9.57;;;4.07;;
15192;SDS011;7697;51.630;7.484;2023-01-10T05:05:32;7.90;;;3.40;;
15192;SDS011;7697;51.630;7.484;2023-01-10T05:10:33;12.23;;;3.87;;
15192;SDS011;7697;51.630;7.484;2023-01-10T05:15:35;6.50;;;3.10;;
15192;SDS011;7697;51.630;7.484;2023-01-10T05:20:38;9.60;;;3.13;;
15192;SDS011;7697;51.630;7.484;2023-01-10T05:25:40;10.10;;;3.37;;
15192;SDS011;7697;51.630;7.484;2023-01-10T05:30:41;9.10;;;3.50;;
15192;SDS011;7697;51.630;7.484;2023-01-10T05:35:44;9.50;;;3.63;;
15192;SDS011;7697;51.630;7.484;2023-01-10T05:40:46;6.77;;;3.20;;
15192;SDS011;7697;51.630;7.484;2023-01-10T05:45:48;11.57;;;3.60;;
15192;SDS011;7697;51.630;7.484;2023-01-10T05:50:51;6.30;;;3.17;;
15192;SDS011;7697;51.630;7.484;2023-01-10T05:55:53;10.77;;;2.73;;
15192;SDS011;7697;51.630;7.484;2023-01-10T06:00:56;10.47;;;2.93;;
15192;SDS011;7697;51.630;7.484;2023-01-10T06:05:59;12.47;;;3.50;;
15192;SDS011;7697;51.630;7.484;2023-01-10T06:11:02;8.20;;;3.50;;
15192;SDS011;7697;51.630;7.484;2023-01-10T06:16:04;9.53;;;3.03;;
15192;SDS011;7697;51.630;7.484;2023-01-10T06:21:08;8.70;;;2.80;;
15192;SDS011;7697;51.630;7.484;2023-01-10T06:26:09;7.00;;;2.93;;
15192;SDS011;7697;51.630;7.484;2023-01-10T06:31:11;8.33;;;2.90;;
15192;SDS011;7697;51.630;7.484;2023-01-10T06:36:15;8.97;;;3.27;;
15192;SDS011;7697;51.630;7.484;2023-01-10T06:41:17;12.50;;;3.27;;
15192;SDS011;7697;51.630;7.484;2023-01-10T06:46:22;8.53;;;3.43;;
15192;SDS011;7697;51.630;7.484;2023-01-10T06:51:26;12.50;;;3.50;;
15192;SDS011;7697;51.630;7.484;2023-01-10T06:56:27;14.73;;;3.40;;
15192;SDS011;7697;51.630;7.484;2023-01-10T07:01:29;12.43;;;2.93;;
15192;SDS011;7697;51.630;7.484;2023-01-10T07:06:33;8.30;;;2.87;;
15192;SDS011;7697;51.630;7.484;2023-01-10T07:11:36;12.20;;;3.53;;
15192;SDS011;7697;51.630;7.484;2023-01-10T07:16:38;12.43;;;3.53;;
15192;SDS011;7697;51.630;7.484;2023-01-10T07:21:41;11.07;;;3.10;;
15192;SDS011;7697;51.630;7.484;2023-01-10T07:26:43;14.57;;;4.73;;
15192;SDS011;7697;51.630;7.484;2023-01-10T07:31:45;14.87;;;3.77;;
15192;SDS011;7697;51.630;7.484;2023-01-10T07:36:48;13.03;;;4.93;;
15192;SDS011;7697;51.630;7.484;2023-01-10T07:41:50;11.43;;;3.73;;
15192;SDS011;7697;51.630;7.484;2023-01-10T07:46:52;12.53;;;4.23;;
15192;SDS011;7697;51.630;7.484;2023-01-10T07:51:55;16.70;;;5.30;;
15192;SDS011;7697;51.630;7.484;2023-01-10T07:56:57;13.00;;;5.27;;
15192;SDS011;7697;51.630;7.484;2023-01-10T08:01:58;12.90;;;4.70;;
15192;SDS011;7697;51.630;7.484;2023-01-10T08:07:01;11.00;;;5.10;;
15192;SDS011;7697;51.630;7.484;2023-01-10T08:12:03;15.60;;;5.10;;
15192;SDS011;7697;51.630;7.484;2023-01-10T08:17:05;20.27;;;5.83;;
15192;SDS011;7697;51.630;7.484;2023-01-10T08:22:08;11.80;;;4.60;;
15192;SDS011;7697;51.630;7.484;2023-01-10T08:27:10;15.90;;;5.20;;
15192;SDS011;7697;51.630;7.484;2023-01-10T08:32:12;17.57;;;5.50;;
15192;SDS011;7697;51.630;7.484;2023-01-10T08:37:15;15.10;;;4.60;;
15192;SDS011;7697;51.630;7.484;2023-01-10T08:42:16;15.57;;;4.73;;
15192;SDS011;7697;51.630;7.484;2023-01-10T08:47:18;17.07;;;4.77;;
15192;SDS011;7697;51.630;7.484;2023-01-10T08:52:22;17.83;;;4.80;;
15192;SDS011;7697;51.630;7.484;2023-01-10T08:57:23;16.50;;;4.80;;
15192;SDS011;7697;51.630;7.484;2023-01-10T09:02:25;17.10;;;4.95;;
15192;SDS011;7697;51.630;7.484;2023-01-10T09:07:28;15.83;;;4.60;;
15192;SDS011;7697;51.630;7.484;2023-01-10T09:12:30;13.63;;;4.35;;
15192;SDS011;7697;51.630;7.484;2023-01-10T09:17:51;16.10;;;4.80;;
15192;SDS011;7697;51.630;7.484;2023-01-10T09:22:55;15.30;;;4.57;;
15192;SDS011;7697;51.630;7.484;2023-01-10T09:27:57;11.53;;;4.13;;
15192;SDS011;7697;51.630;7.484;2023-01-10T09:33:00;21.00;;;6.33;;
15192;SDS011;7697;51.630;7.484;2023-01-10T09:38:04;15.00;;;5.03;;
15192;SDS011;7697;51.630;7.484;2023-01-10T09:43:14;23.63;;;5.75;;
15192;SDS011;7697;51.630;7.484;2023-01-10T09:48:22;17.07;;;4.80;;
15192;SDS011;7697;51.630;7.484;2023-01-10T09:53:29;16.53;;;4.60;;
15192;SDS011;7697;51.630;7.484;2023-01-10T09:58:34;15.77;;;4.17;;
15192;SDS011;7697;51.630;7.484;2023-01-10T10:03:40;19.27;;;4.60;;
15192;SDS011;7697;51.630;7.484;2023-01-10T10:08:47;13.02;;;4.72;;
15192;SDS011;7697;51.630;7.484;2023-01-10T10:13:50;16.00;;;4.13;;
15192;SDS011;7697;51.630;7.484;2023-01-10T10:19:01;14.73;;;4.50;;
15192;SDS011;7697;51.630;7.484;2023-01-10T10:24:21;11.63;;;3.75;;
15192;SDS011;7697;51.630;7.484;2023-01-10T10:29:34;14.82;;;4.25;;
15192;SDS011;7697;51.630;7.484;2023-01-10T10:34:49;16.17;;;4.63;;
15192;SDS011;7697;51.630;7.484;2023-01-10T10:39:56;13.98;;;4.88;;
15192;SDS011;7697;51.630;7.484;2023-01-10T10:45:00;18.25;;;5.45;;
15192;SDS011;7697;51.630;7.484;2023-01-10T10:50:07;13.10;;;4.28;;
15192;SDS011;7697;51.630;7.484;2023-01-10T10:55:21;18.63;;;5.13;;
15192;SDS011;7697;51.630;7.484;2023-01-10T11:00:29;15.52;;;4.90;;
15192;SDS011;7697;51.630;7.484;2023-01-10T11:05:34;19.40;;;5.05;;
15192;SDS011;7697;51.630;7.484;2023-01-10T11:10:40;18.45;;;4.80;;
15192;SDS011;7697;51.630;7.484;2023-01-10T11:15:45;10.70;;;4.18;;
15192;SDS011;7697;51.630;7.484;2023-01-10T11:20:49;18.92;;;4.15;;
15192;SDS011;7697;51.630;7.484;2023-01-10T11:25:58;17.80;;;4.75;;
15192;SDS011;7697;51.630;7.484;2023-01-10T11:30:59;17.05;;;4.97;;
15192;SDS011;7697;51.630;7.484;2023-01-10T11:36:03;15.60;;;3.85;;
15192;SDS011;7697;51.630;7.484;2023-01-10T11:41:22;16.23;;;3.95;;
15192;SDS011;7697;51.630;7.484;2023-01-10T11:46:26;16.88;;;4.47;;
15192;SDS011;7697;51.630;7.484;2023-01-10T11:51:28;14.65;;;3.97;;
15192;SDS011;7697;51.630;7.484;2023-01-10T11:56:35;19.02;;;5.20;;
15192;SDS011;7697;51.630;7.484;2023-01-10T12:01:40;13.88;;;4.65;;
15192;SDS011;7697;51.630;7.484;2023-01-10T12:06:46;14.82;;;3.88;;
15192;SDS011;7697;51.630;7.484;2023-01-10T12:11:51;17.88;;;3.63;;
15192;SDS011;7697;51.630;7.484;2023-01-10T12:17:01;13.65;;;3.85;;
15192;SDS011;7697;51.630;7.484;2023-01-10T12:22:03;11.77;;;3.90;;
15192;SDS011;7697;51.630;7.484;2023-01-10T12:27:09;12.52;;;3.83;;
15192;SDS011;7697;51.630;7.484;2023-01-10T12:32:14;15.00;;;4.72;;
15192;SDS011;7697;51.630;7.484;2023-01-10T12:37:20;15.20;;;4.38;;
15192;SDS011;7697;51.630;7.484;2023-01-10T12:42:41;14.65;;;4.38;;
15192;SDS011;7697;51.630;7.484;2023-01-10T12:48:09;17.33;;;4.75;;
15192;SDS011;7697;51.630;7.484;2023-01-10T12:53:20;13.82;;;3.45;;
15192;SDS011;7697;51.630;7.484;2023-01-10T12:58:31;18.80;;;4.72;;
15192;SDS011;7697;51.630;7.484;2023-01-10T13:03:37;14.75;;;4.00;;
15192;SDS011;7697;51.630;7.484;2023-01-10T13:08:39;15.55;;;3.90;;
15192;SDS011;7697;51.630;7.484;2023-01-10T13:13:44;12.63;;;3.50;;
15192;SDS011;7697;51.630;7.484;2023-01-10T13:19:01;11.65;;;3.50;;
15192;SDS011;7697;51.630;7.484;2023-01-10T13:24:05;9.15;;;3.13;;
15192;SDS011;7697;51.630;7.484;2023-01-10T13:29:21;15.27;;;3.78;;
15192;SDS011;7697;51.630;7.484;2023-01-10T13:34:25;10.98;;;3.33;;
15192;SDS011;7697;51.630;7.484;2023-01-10T13:39:33;14.88;;;3.60;;
15192;SDS011;7697;51.630;7.484;2023-01-10T13:55:53;7.32;;;2.58;;
15192;SDS011;7697;51.630;7.484;2023-01-10T14:00:56;9.88;;;3.10;;
15192;SDS011;7697;51.630;7.484;2023-01-10T14:06:20;8.50;;;2.22;;
15192;SDS011;7697;51.630;7.484;2023-01-10T14:11:47;13.20;;;2.90;;
15192;SDS011;7697;51.630;7.484;2023-01-10T14:16:52;12.50;;;3.05;;
15192;SDS011;7697;51.630;7.484;2023-01-10T14:22:22;10.02;;;3.13;;
15192;SDS011;7697;51.630;7.484;2023-01-10T14:27:29;11.60;;;3.17;;
15192;SDS011;7697;51.630;7.484;2023-01-10T14:32:37;15.20;;;2.97;;
15192;SDS011;7697;51.630;7.484;2023-01-10T14:37:44;6.57;;;2.70;;
15192;SDS011;7697;51.630;7.484;2023-01-10T14:42:52;16.50;;;3.17;;
15192;SDS011;7697;51.630;7.484;2023-01-10T14:47:57;11.13;;;3.13;;
15192;SDS011;7697;51.630;7.484;2023-01-10T14:53:00;10.13;;;2.90;;
15192;SDS011;7697;51.630;7.484;2023-01-10T14:58:02;9.35;;;2.42;;
15192;SDS011;7697;51.630;7.484;2023-01-10T15:03:03;11.07;;;2.90;;
15192;SDS011;7697;51.630;7.484;2023-01-10T15:08:16;9.18;;;2.60;;
15192;SDS011;7697;51.630;7.484;2023-01-10T15:13:22;11.00;;;2.58;;
15192;SDS011;7697;51.630;7.484;2023-01-10T15:18:28;10.38;;;2.63;;
15192;SDS011;7697;51.630;7.484;2023-01-10T15:23:37;7.13;;;2.70;;
15192;SDS011;7697;51.630;7.484;2023-01-10T15:28:39;6.30;;;2.30;;
15192;SDS011;7697;51.630;7.484;2023-01-10T15:33:42;9.82;;;2.63;;
15192;SDS011;7697;51.630;7.484;2023-01-10T15:38:48;9.63;;;2.88;;
15192;SDS011;7697;51.630;7.484;2023-01-10T15:43:49;6.32;;;2.90;;
15192;SDS011;7697;51.630;7.484;2023-01-10T15:48:53;8.98;;;2.78;;
15192;SDS011;7697;51.630;7.484;2023-01-10T15:54:00;7.72;;;2.40;;
15192;SDS011;7697;51.630;7.484;2023-01-10T15:59:04;6.75;;;2.28;;
15192;SDS011;7697;51.630;7.484;2023-01-10T16:04:18;6.20;;;2.30;;
15192;SDS011;7697;51.630;7.484;2023-01-10T16:09:22;10.75;;;2.90;;
15192;SDS011;7697;51.630;7.484;2023-01-10T16:14:23;10.07;;;3.05;;
15192;SDS011;7697;51.630;7.484;2023-01-10T16:19:25;8.40;;;2.63;;
15192;SDS011;7697;51.630;7.484;2023-01-10T16:24:29;9.60;;;2.30;;
15192;SDS011;7697;51.630;7.484;2023-01-10T16:29:32;10.35;;;2.75;;
15192;SDS011;7697;51.630;7.484;2023-01-10T16:34:34;8.18;;;2.40;;
15192;SDS011;7697;51.630;7.484;2023-01-10T16:39:37;10.57;;;2.83;;
15192;SDS011;7697;51.630;7.484;2023-01-10T16:44:38;16.40;;;2.80;;
15192;SDS011;7697;51.630;7.484;2023-01-10T16:49:40;10.45;;;3.08;;
15192;SDS011;7697;51.630;7.484;2023-01-10T16:54:43;12.35;;;3.30;;
15192;SDS011;7697;51.630;7.484;2023-01-10T16:59:45;7.70;;;2.30;;
15192;SDS011;7697;51.630;7.484;2023-01-10T17:04:47;9.23;;;2.90;;
15192;SDS011;7697;51.630;7.484;2023-01-10T17:09:50;8.27;;;2.58;;
15192;SDS011;7697;51.630;7.484;2023-01-10T17:14:52;10.40;;;2.95;;
15192;SDS011;7697;51.630;7.484;2023-01-10T17:19:54;7.65;;;2.38;;
15192;SDS011;7697;51.630;7.484;2023-01-10T17:24:57;10.93;;;2.75;;
15192;SDS011;7697;51.630;7.484;2023-01-10T17:29:59;10.45;;;3.35;;
15192;SDS011;7697;51.630;7.484;2023-01-10T17:35:02;6.25;;;2.38;;
15192;SDS011;7697;51.630;7.484;2023-01-10T17:40:07;10.93;;;3.13;;
15192;SDS011;7697;51.630;7.484;2023-01-10T17:45:09;10.23;;;2.97;;
15192;SDS011;7697;51.630;7.484;2023-01-10T17:50:11;7.78;;;2.55;;
15192;SDS011;7697;51.630;7.484;2023-01-10T17:55:15;7.20;;;3.05;;
15192;SDS011;7697;51.630;7.484;2023-01-10T18:00:16;9.25;;;2.35;;
15192;SDS011;7697;51.630;7.484;2023-01-10T18:05:18;10.00;;;2.58;;
15192;SDS011;7697;51.630;7.484;2023-01-10T18:10:22;12.00;;;2.70;;
15192;SDS011;7697;51.630;7.484;2023-01-10T18:15:25;10.30;;;2.50;;
15192;SDS011;7697;51.630;7.484;2023-01-10T18:20:27;7.93;;;2.50;;
15192;SDS011;7697;51.630;7.484;2023-01-10T18:25:30;7.80;;;2.60;;
15192;SDS011;7697;51.630;7.484;2023-01-10T18:30:31;6.20;;;2.28;;
15192;SDS011;7697;51.630;7.484;2023-01-10T18:35:33;6.75;;;2.30;;
15192;SDS011;7697;51.630;7.484;2023-01-10T18:40:38;6.22;;;1.90;;
15192;SDS011;7697;51.630;7.484;2023-01-10T18:45:41;5.28;;;1.73;;
15192;SDS011;7697;51.630;7.484;2023-01-10T18:50:43;6.47;;;2.10;;
15192;SDS011;7697;51.630;7.484;2023-01-10T18:55:52;5.40;;;1.67;;
15192;SDS011;7697;51.630;7.484;2023-01-10T19:00:54;5.87;;;1.70;;
15192;SDS011;7697;51.630;7.484;2023-01-10T19:05:57;4.87;;;2.00;;
15192;SDS011;7697;51.630;7.484;2023-01-10T19:11:01;4.80;;;1.80;;
15192;SDS011;7697;51.630;7.484;2023-01-10T19:16:09;6.10;;;1.87;;
15192;SDS011;7697;51.630;7.484;2023-01-10T19:21:12;2.10;;;1.40;;
15192;SDS011;7697;51.630;7.484;2023-01-10T19:26:16;4.20;;;1.70;;
15192;SDS011;7697;51.630;7.484;2023-01-10T19:31:19;4.72;;;1.48;;
15192;SDS011;7697;51.630;7.484;2023-01-10T19:36:22;2.80;;;1.40;;
15192;SDS011;7697;51.630;7.484;2023-01-10T19:41:25;4.20;;;1.40;;
15192;SDS011;7697;51.630;7.484;2023-01-10T19:46:28;3.53;;;1.43;;
15192;SDS011;7697;51.630;7.484;2023-01-10T19:51:33;3.37;;;1.30;;
15192;SDS011;7697;51.630;7.484;2023-01-10T19:56:37;3.17;;;1.50;;
15192;SDS011;7697;51.630;7.484;2023-01-10T20:01:39;3.07;;;1.40;;
15192;SDS011;7697;51.630;7.484;2023-01-10T20:06:41;1.90;;;1.33;;
15192;SDS011;7697;51.630;7.484;2023-01-10T20:11:44;1.50;;;1.20;;
15192;SDS011;7697;51.630;7.484;2023-01-10T20:16:46;2.38;;;1.27;;
15192;SDS011;7697;51.630;7.484;2023-01-10T20:21:48;2.67;;;1.37;;
15192;SDS011;7697;51.630;7.484;2023-01-10T20:26:51;2.80;;;1.30;;
15192;SDS011;7697;51.630;7.484;2023-01-10T20:31:53;3.58;;;1.55;;
15192;SDS011;7697;51.630;7.484;2023-01-10T20:36:57;3.33;;;1.38;;
15192;SDS011;7697;51.630;7.484;2023-01-10T20:42:00;2.22;;;1.30;;
15192;SDS011;7697;51.630;7.484;2023-01-10T20:47:01;4.87;;;1.53;;
15192;SDS011;7697;51.630;7.484;2023-01-10T20:52:03;2.47;;;1.25;;
15192;SDS011;7697;51.630;7.484;2023-01-10T20:57:06;3.03;;;1.67;;
15192;SDS011;7697;51.630;7.484;2023-01-10T21:02:09;3.07;;;1.70;;
15192;SDS011;7697;51.630;7.484;2023-01-10T21:07:11;3.35;;;1.48;;
15192;SDS011;7697;51.630;7.484;2023-01-10T21:12:14;2.55;;;1.15;;
15192;SDS011;7697;51.630;7.484;2023-01-10T21:17:16;2.13;;;1.30;;
15192;SDS011;7697;51.630;7.484;2023-01-10T21:22:18;3.28;;;1.30;;
15192;SDS011;7697;51.630;7.484;2023-01-10T21:27:21;1.45;;;1.02;;
15192;SDS011;7697;51.630;7.484;2023-01-10T21:32:23;2.95;;;1.27;;
15192;SDS011;7697;51.630;7.484;2023-01-10T21:37:25;2.22;;;1.05;;
15192;SDS011;7697;51.630;7.484;2023-01-10T21:42:28;1.23;;;0.93;;
15192;SDS011;7697;51.630;7.484;2023-01-10T21:47:37;2.53;;;1.23;;
15192;SDS011;7697;51.630;7.484;2023-01-10T21:52:39;3.28;;;0.98;;
15192;SDS011;7697;51.630;7.484;2023-01-10T21:57:42;3.22;;;1.33;;
15192;SDS011;7697;51.630;7.484;2023-01-10T22:02:44;2.08;;;1.10;;
15192;SDS011;7697;51.630;7.484;2023-01-10T22:07:46;2.25;;;1.20;;
15192;SDS011;7697;51.630;7.484;2023-01-10T22:12:49;2.80;;;1.17;;
15192;SDS011;7697;51.630;7.484;2023-01-10T22:17:51;2.90;;;1.40;;
15192;SDS011;7697;51.630;7.484;2023-01-10T22:22:53;1.95;;;1.10;;
15192;SDS011;7697;51.630;7.484;2023-01-10T22:27:56;3.90;;;1.23;;
15192;SDS011;7697;51.630;7.484;2023-01-10T22:32:57;3.08;;;1.13;;
15192;SDS011;7697;51.630;7.484;2023-01-10T22:37:59;1.80;;;1.00;;
15192;SDS011;7697;51.630;7.484;2023-01-10T22:43:02;1.25;;;0.90;;
15192;SDS011;7697;51.630;7.484;2023-01-10T22:48:04;2.90;;;1.20;;
15192;SDS011;7697;51.630;7.484;2023-01-10T22:53:06;1.92;;;0.90;;
15192;SDS011;7697;51.630;7.484;2023-01-10T22:58:09;0.80;;;0.80;;
15192;SDS011;7697;51.630;7.484;2023-01-10T23:03:10;1.92;;;0.80;;
15192;SDS011;7697;51.630;7.484;2023-01-10T23:08:12;1.60;;;1.23;;
15192;SDS011;7697;51.630;7.484;2023-01-10T23:13:16;1.73;;;1.17;;
15192;SDS011;7697;51.630;7.484;2023-01-10T23:18:17;1.20;;;1.08;;
15192;SDS011;7697;51.630;7.484;2023-01-10T23:23:19;1.67;;;1.02;;
15192;SDS011;7697;51.630;7.484;2023-01-10T23:28:23;2.35;;;1.20;;
15192;SDS011;7697;51.630;7.484;2023-01-10T23:33:24;2.30;;;1.17;;
15192;SDS011;7697;51.630;7.484;2023-01-10T23:38:26;1.50;;;1.10;;
15192;SDS011;7697;51.630;7.484;2023-01-10T23:43:29;1.15;;;1.00;;
15192;SDS011;7697;51.630;7.484;2023-01-10T23:48:31;1.17;;;0.90;;
15192;SDS011;7697;51.630;7.484;2023-01-10T23:53:33;1.58;;;0.90;;
15192;SDS011;7697;51.630;7.484;2023-01-10T23:58:36;0.68;;;0.60;;
